Terminal Aerodrome Forecast
Issued by NWS

Home | Current Version | Previous Version | Text Only | Print | Product List | Glossary On
Versions: 1 2 3 4 5 6 7 8 9 10 11 12 13 14 15 16
000
FTUS42 KFFC 190159 AAA
TAFRYY
TAF AMD
KRYY 190159Z 1902/1924 23015G25KT P6SM VCSH BKN020 OVC050
      WS020/21045KT
      TEMPO 1903/1905 29020G35KT 3SM SHRA BR OVC020
     FM190600 31015G25KT P6SM VCSH BKN030
     FM190900 32015KT P6SM BKN040
     FM191400 32014G22KT P6SM SCT250
     FM191800 32012G20KT P6SM SKC=

USA.gov is the U.S. government's official web portal to all federal, state and local government web resources and services.